sensor_id;sensor_type;location;lat;lon;timestamp;temperature;humidity
42479;DHT22;28110;47.080;9.476;2022-12-29T00:02:18;8.80;90.60
42479;DHT22;28110;47.080;9.476;2022-12-29T00:04:44;8.80;90.80
42479;DHT22;28110;47.080;9.476;2022-12-29T00:07:09;8.80;90.60
42479;DHT22;28110;47.080;9.476;2022-12-29T00:09:35;8.80;90.50
42479;DHT22;28110;47.080;9.476;2022-12-29T00:12:02;8.80;90.40
42479;DHT22;28110;47.080;9.476;2022-12-29T00:14:28;8.90;90.50
42479;DHT22;28110;47.080;9.476;2022-12-29T00:17:13;8.90;90.30
42479;DHT22;28110;47.080;9.476;2022-12-29T00:19:38;8.80;90.00
42479;DHT22;28110;47.080;9.476;2022-12-29T00:22:23;8.80;90.10
42479;DHT22;28110;47.080;9.476;2022-12-29T00:25:09;8.80;90.40
42479;DHT22;28110;47.080;9.476;2022-12-29T00:27:53;8.80;90.20
42479;DHT22;28110;47.080;9.476;2022-12-29T00:30:38;8.80;90.50
42479;DHT22;28110;47.080;9.476;2022-12-29T00:33:26;8.80;90.30
42479;DHT22;28110;47.080;9.476;2022-12-29T00:36:34;8.90;88.90
42479;DHT22;28110;47.080;9.476;2022-12-29T00:39:16;8.90;89.60
42479;DHT22;28110;47.080;9.476;2022-12-29T00:42:15;9.00;89.40
42479;DHT22;28110;47.080;9.476;2022-12-29T00:44:59;8.90;89.00
42479;DHT22;28110;47.080;9.476;2022-12-29T00:47:24;8.90;89.20
42479;DHT22;28110;47.080;9.476;2022-12-29T00:49:50;9.00;88.60
42479;DHT22;28110;47.080;9.476;2022-12-29T00:52:16;8.90;89.20
42479;DHT22;28110;47.080;9.476;2022-12-29T00:54:41;8.90;89.00
42479;DHT22;28110;47.080;9.476;2022-12-29T00:57:10;8.90;89.40
42479;DHT22;28110;47.080;9.476;2022-12-29T00:59:38;8.90;89.20
42479;DHT22;28110;47.080;9.476;2022-12-29T01:02:05;8.90;89.40
42479;DHT22;28110;47.080;9.476;2022-12-29T01:04:31;8.90;89.30
42479;DHT22;28110;47.080;9.476;2022-12-29T01:06:56;9.00;88.40
42479;DHT22;28110;47.080;9.476;2022-12-29T01:09:22;8.90;88.40
42479;DHT22;28110;47.080;9.476;2022-12-29T01:12:08;9.00;88.90
42479;DHT22;28110;47.080;9.476;2022-12-29T01:14:33;8.90;88.70
42479;DHT22;28110;47.080;9.476;2022-12-29T01:16:59;8.90;88.10
42479;DHT22;28110;47.080;9.476;2022-12-29T01:19:25;9.00;88.00
42479;DHT22;28110;47.080;9.476;2022-12-29T01:21:51;9.00;88.40
42479;DHT22;28110;47.080;9.476;2022-12-29T01:24:17;8.90;89.00
42479;DHT22;28110;47.080;9.476;2022-12-29T01:26:43;8.80;87.90
42479;DHT22;28110;47.080;9.476;2022-12-29T01:29:09;8.80;87.80
42479;DHT22;28110;47.080;9.476;2022-12-29T01:31:35;8.80;87.30
42479;DHT22;28110;47.080;9.476;2022-12-29T01:34:00;8.80;88.00
42479;DHT22;28110;47.080;9.476;2022-12-29T01:36:26;8.90;87.30
42479;DHT22;28110;47.080;9.476;2022-12-29T01:38:52;8.80;88.00
42479;DHT22;28110;47.080;9.476;2022-12-29T01:41:17;8.80;87.30
42479;DHT22;28110;47.080;9.476;2022-12-29T01:44:39;8.80;88.00
42479;DHT22;28110;47.080;9.476;2022-12-29T01:46:36;8.80;88.40
42479;DHT22;28110;47.080;9.476;2022-12-29T01:51:29;8.80;87.30
42479;DHT22;28110;47.080;9.476;2022-12-29T01:53:58;8.80;87.70
42479;DHT22;28110;47.080;9.476;2022-12-29T01:56:25;8.80;87.40
42479;DHT22;28110;47.080;9.476;2022-12-29T01:58:56;8.70;87.80
42479;DHT22;28110;47.080;9.476;2022-12-29T02:01:23;8.70;87.60
42479;DHT22;28110;47.080;9.476;2022-12-29T02:03:49;8.80;87.90
42479;DHT22;28110;47.080;9.476;2022-12-29T02:06:20;8.80;87.30
42479;DHT22;28110;47.080;9.476;2022-12-29T02:08:47;8.90;87.10
42479;DHT22;28110;47.080;9.476;2022-12-29T02:11:15;8.70;87.60
42479;DHT22;28110;47.080;9.476;2022-12-29T02:13:41;8.70;87.20
42479;DHT22;28110;47.080;9.476;2022-12-29T02:21:57;8.70;87.80
42479;DHT22;28110;47.080;9.476;2022-12-29T02:27:53;8.60;86.80
42479;DHT22;28110;47.080;9.476;2022-12-29T02:33:23;8.60;87.90
42479;DHT22;28110;47.080;9.476;2022-12-29T02:38:33;8.60;88.10
42479;DHT22;28110;47.080;9.476;2022-12-29T02:43:42;8.50;87.70
42479;DHT22;28110;47.080;9.476;2022-12-29T02:49:13;8.70;87.60
42479;DHT22;28110;47.080;9.476;2022-12-29T02:51:51;8.70;87.10
42479;DHT22;28110;47.080;9.476;2022-12-29T02:54:18;8.70;87.10
42479;DHT22;28110;47.080;9.476;2022-12-29T02:57:08;8.70;86.50
42479;DHT22;28110;47.080;9.476;2022-12-29T02:59:34;8.70;86.80
42479;DHT22;28110;47.080;9.476;2022-12-29T03:11:04;8.70;86.40
42479;DHT22;28110;47.080;9.476;2022-12-29T03:13:46;8.60;87.50
42479;DHT22;28110;47.080;9.476;2022-12-29T03:19:21;8.50;86.40
42479;DHT22;28110;47.080;9.476;2022-12-29T03:21:55;8.40;88.00
42479;DHT22;28110;47.080;9.476;2022-12-29T03:24:46;8.40;87.40
42479;DHT22;28110;47.080;9.476;2022-12-29T03:27:16;8.40;87.30
42479;DHT22;28110;47.080;9.476;2022-12-29T03:29:46;8.40;87.40
42479;DHT22;28110;47.080;9.476;2022-12-29T03:32:17;8.40;87.40
42479;DHT22;28110;47.080;9.476;2022-12-29T03:34:44;8.50;86.10
42479;DHT22;28110;47.080;9.476;2022-12-29T03:37:14;8.50;86.10
42479;DHT22;28110;47.080;9.476;2022-12-29T03:39:40;8.50;86.00
42479;DHT22;28110;47.080;9.476;2022-12-29T03:42:11;8.60;86.30
42479;DHT22;28110;47.080;9.476;2022-12-29T03:44:40;8.50;87.00
42479;DHT22;28110;47.080;9.476;2022-12-29T03:47:07;8.50;87.10
42479;DHT22;28110;47.080;9.476;2022-12-29T03:49:33;8.50;87.00
42479;DHT22;28110;47.080;9.476;2022-12-29T03:51:59;8.40;86.80
42479;DHT22;28110;47.080;9.476;2022-12-29T03:54:24;8.50;86.70
42479;DHT22;28110;47.080;9.476;2022-12-29T03:56:50;8.60;86.20
42479;DHT22;28110;47.080;9.476;2022-12-29T03:59:15;8.60;85.90
42479;DHT22;28110;47.080;9.476;2022-12-29T04:01:41;8.60;86.20
42479;DHT22;28110;47.080;9.476;2022-12-29T04:04:06;8.60;85.80
42479;DHT22;28110;47.080;9.476;2022-12-29T04:06:32;8.60;86.00
42479;DHT22;28110;47.080;9.476;2022-12-29T04:08:57;8.60;85.80
42479;DHT22;28110;47.080;9.476;2022-12-29T04:11:23;8.60;85.60
42479;DHT22;28110;47.080;9.476;2022-12-29T04:13:49;8.50;86.70
42479;DHT22;28110;47.080;9.476;2022-12-29T04:16:15;8.50;86.60
42479;DHT22;28110;47.080;9.476;2022-12-29T04:18:40;8.50;86.60
42479;DHT22;28110;47.080;9.476;2022-12-29T04:21:06;8.50;86.90
42479;DHT22;28110;47.080;9.476;2022-12-29T04:23:34;8.50;86.20
42479;DHT22;28110;47.080;9.476;2022-12-29T04:26:01;8.60;86.20
42479;DHT22;28110;47.080;9.476;2022-12-29T04:28:27;8.60;86.30
42479;DHT22;28110;47.080;9.476;2022-12-29T04:30:52;8.60;86.50
42479;DHT22;28110;47.080;9.476;2022-12-29T04:33:18;8.60;86.00
42479;DHT22;28110;47.080;9.476;2022-12-29T04:35:44;8.60;85.60
42479;DHT22;28110;47.080;9.476;2022-12-29T04:38:10;8.70;86.70
42479;DHT22;28110;47.080;9.476;2022-12-29T04:40:38;8.60;85.80
42479;DHT22;28110;47.080;9.476;2022-12-29T04:43:05;8.60;86.30
42479;DHT22;28110;47.080;9.476;2022-12-29T04:45:30;8.60;86.40
42479;DHT22;28110;47.080;9.476;2022-12-29T04:47:56;8.60;86.20
42479;DHT22;28110;47.080;9.476;2022-12-29T04:50:21;8.60;86.20
42479;DHT22;28110;47.080;9.476;2022-12-29T04:52:47;8.50;86.70
42479;DHT22;28110;47.080;9.476;2022-12-29T04:55:13;8.50;86.70
42479;DHT22;28110;47.080;9.476;2022-12-29T04:57:38;8.50;86.40
42479;DHT22;28110;47.080;9.476;2022-12-29T05:00:04;8.40;86.30
42479;DHT22;28110;47.080;9.476;2022-12-29T05:02:30;8.40;87.10
42479;DHT22;28110;47.080;9.476;2022-12-29T05:04:56;8.40;86.60
42479;DHT22;28110;47.080;9.476;2022-12-29T05:07:21;8.40;86.60
42479;DHT22;28110;47.080;9.476;2022-12-29T05:09:47;8.40;86.90
42479;DHT22;28110;47.080;9.476;2022-12-29T05:12:13;8.50;85.90
42479;DHT22;28110;47.080;9.476;2022-12-29T05:14:38;8.60;85.10
42479;DHT22;28110;47.080;9.476;2022-12-29T05:17:04;8.70;85.50
42479;DHT22;28110;47.080;9.476;2022-12-29T05:19:29;8.80;84.80
42479;DHT22;28110;47.080;9.476;2022-12-29T05:21:55;8.80;84.80
42479;DHT22;28110;47.080;9.476;2022-12-29T05:24:21;8.70;84.60
42479;DHT22;28110;47.080;9.476;2022-12-29T05:26:46;8.70;84.70
42479;DHT22;28110;47.080;9.476;2022-12-29T05:29:12;8.60;85.30
42479;DHT22;28110;47.080;9.476;2022-12-29T05:31:37;8.70;84.60
42479;DHT22;28110;47.080;9.476;2022-12-29T05:34:03;8.80;84.00
42479;DHT22;28110;47.080;9.476;2022-12-29T05:36:29;8.80;84.50
42479;DHT22;28110;47.080;9.476;2022-12-29T05:38:54;8.80;84.00
42479;DHT22;28110;47.080;9.476;2022-12-29T05:41:20;8.80;84.00
42479;DHT22;28110;47.080;9.476;2022-12-29T05:43:46;8.80;84.40
42479;DHT22;28110;47.080;9.476;2022-12-29T05:46:11;8.80;84.80
42479;DHT22;28110;47.080;9.476;2022-12-29T05:48:37;8.80;85.70
42479;DHT22;28110;47.080;9.476;2022-12-29T05:51:02;8.70;84.90
42479;DHT22;28110;47.080;9.476;2022-12-29T05:53:28;8.80;84.80
42479;DHT22;28110;47.080;9.476;2022-12-29T05:55:53;8.70;84.50
42479;DHT22;28110;47.080;9.476;2022-12-29T05:58:19;8.70;84.70
42479;DHT22;28110;47.080;9.476;2022-12-29T06:00:45;8.70;85.60
42479;DHT22;28110;47.080;9.476;2022-12-29T06:03:11;8.60;85.30
42479;DHT22;28110;47.080;9.476;2022-12-29T06:05:36;8.60;86.30
42479;DHT22;28110;47.080;9.476;2022-12-29T06:08:02;8.50;85.80
42479;DHT22;28110;47.080;9.476;2022-12-29T06:10:28;8.50;85.70
42479;DHT22;28110;47.080;9.476;2022-12-29T06:12:53;8.60;85.70
42479;DHT22;28110;47.080;9.476;2022-12-29T06:15:19;8.60;86.00
42479;DHT22;28110;47.080;9.476;2022-12-29T06:17:44;8.50;86.10
42479;DHT22;28110;47.080;9.476;2022-12-29T06:20:10;8.50;85.90
42479;DHT22;28110;47.080;9.476;2022-12-29T06:22:36;8.50;86.10
42479;DHT22;28110;47.080;9.476;2022-12-29T06:25:02;8.50;85.40
42479;DHT22;28110;47.080;9.476;2022-12-29T06:27:28;8.50;85.90
42479;DHT22;28110;47.080;9.476;2022-12-29T06:29:54;8.50;85.80
42479;DHT22;28110;47.080;9.476;2022-12-29T06:32:19;8.60;85.50
42479;DHT22;28110;47.080;9.476;2022-12-29T06:34:45;8.50;85.90
42479;DHT22;28110;47.080;9.476;2022-12-29T06:37:10;8.50;85.80
42479;DHT22;28110;47.080;9.476;2022-12-29T06:39:36;8.50;86.20
42479;DHT22;28110;47.080;9.476;2022-12-29T06:42:02;8.60;85.60
42479;DHT22;28110;47.080;9.476;2022-12-29T06:44:28;8.60;85.20
42479;DHT22;28110;47.080;9.476;2022-12-29T06:46:53;8.60;84.90
42479;DHT22;28110;47.080;9.476;2022-12-29T06:49:19;8.70;84.60
42479;DHT22;28110;47.080;9.476;2022-12-29T06:51:45;8.60;84.20
42479;DHT22;28110;47.080;9.476;2022-12-29T06:54:11;8.60;84.80
42479;DHT22;28110;47.080;9.476;2022-12-29T06:56:36;8.60;84.80
42479;DHT22;28110;47.080;9.476;2022-12-29T06:59:02;8.50;84.40
42479;DHT22;28110;47.080;9.476;2022-12-29T07:01:28;8.50;85.30
42479;DHT22;28110;47.080;9.476;2022-12-29T07:03:53;8.40;85.60
42479;DHT22;28110;47.080;9.476;2022-12-29T07:06:19;8.50;85.70
42479;DHT22;28110;47.080;9.476;2022-12-29T07:08:45;8.50;85.10
42479;DHT22;28110;47.080;9.476;2022-12-29T07:11:10;8.50;85.10
42479;DHT22;28110;47.080;9.476;2022-12-29T07:13:36;8.50;85.40
42479;DHT22;28110;47.080;9.476;2022-12-29T07:16:08;8.50;84.40
42479;DHT22;28110;47.080;9.476;2022-12-29T07:18:34;8.60;83.50
42479;DHT22;28110;47.080;9.476;2022-12-29T07:21:00;8.60;83.60
42479;DHT22;28110;47.080;9.476;2022-12-29T07:23:26;8.70;83.40
42479;DHT22;28110;47.080;9.476;2022-12-29T07:26:02;8.70;83.50
42479;DHT22;28110;47.080;9.476;2022-12-29T07:28:28;8.80;82.70
42479;DHT22;28110;47.080;9.476;2022-12-29T07:30:54;8.90;82.70
42479;DHT22;28110;47.080;9.476;2022-12-29T07:33:19;8.90;82.30
42479;DHT22;28110;47.080;9.476;2022-12-29T07:35:45;9.00;82.20
42479;DHT22;28110;47.080;9.476;2022-12-29T07:38:10;9.00;81.40
42479;DHT22;28110;47.080;9.476;2022-12-29T07:40:36;9.10;82.10
42479;DHT22;28110;47.080;9.476;2022-12-29T07:43:01;9.10;82.90
42479;DHT22;28110;47.080;9.476;2022-12-29T07:45:27;9.00;82.90
42479;DHT22;28110;47.080;9.476;2022-12-29T07:47:53;9.00;82.70
42479;DHT22;28110;47.080;9.476;2022-12-29T07:50:18;9.10;82.00
42479;DHT22;28110;47.080;9.476;2022-12-29T07:52:44;9.10;82.40
42479;DHT22;28110;47.080;9.476;2022-12-29T07:55:10;9.00;82.30
42479;DHT22;28110;47.080;9.476;2022-12-29T07:57:35;9.10;82.30
42479;DHT22;28110;47.080;9.476;2022-12-29T08:00:02;9.20;82.20
42479;DHT22;28110;47.080;9.476;2022-12-29T08:02:28;9.20;82.00
42479;DHT22;28110;47.080;9.476;2022-12-29T08:04:55;9.30;81.10
42479;DHT22;28110;47.080;9.476;2022-12-29T08:07:20;9.20;81.60
42479;DHT22;28110;47.080;9.476;2022-12-29T08:09:46;9.30;81.80
42479;DHT22;28110;47.080;9.476;2022-12-29T08:12:12;9.30;81.80
42479;DHT22;28110;47.080;9.476;2022-12-29T08:14:37;9.30;81.60
42479;DHT22;28110;47.080;9.476;2022-12-29T08:17:03;9.30;81.10
42479;DHT22;28110;47.080;9.476;2022-12-29T08:19:28;9.30;81.20
42479;DHT22;28110;47.080;9.476;2022-12-29T08:21:54;9.30;81.20
42479;DHT22;28110;47.080;9.476;2022-12-29T08:24:19;9.40;80.80
42479;DHT22;28110;47.080;9.476;2022-12-29T08:26:45;9.30;81.30
42479;DHT22;28110;47.080;9.476;2022-12-29T08:29:11;9.30;80.80
42479;DHT22;28110;47.080;9.476;2022-12-29T08:31:36;9.30;80.40
42479;DHT22;28110;47.080;9.476;2022-12-29T08:34:02;9.30;80.20
42479;DHT22;28110;47.080;9.476;2022-12-29T08:36:29;9.30;80.80
42479;DHT22;28110;47.080;9.476;2022-12-29T08:38:56;9.30;79.50
42479;DHT22;28110;47.080;9.476;2022-12-29T08:41:21;9.30;80.70
42479;DHT22;28110;47.080;9.476;2022-12-29T08:43:48;9.40;80.20
42479;DHT22;28110;47.080;9.476;2022-12-29T08:46:14;9.50;79.90
42479;DHT22;28110;47.080;9.476;2022-12-29T08:48:40;9.50;80.10
42479;DHT22;28110;47.080;9.476;2022-12-29T08:51:05;9.60;78.90
42479;DHT22;28110;47.080;9.476;2022-12-29T08:53:31;9.60;79.60
42479;DHT22;28110;47.080;9.476;2022-12-29T08:55:58;9.60;78.70
42479;DHT22;28110;47.080;9.476;2022-12-29T08:58:25;9.60;79.50
42479;DHT22;28110;47.080;9.476;2022-12-29T09:00:53;9.60;79.40
42479;DHT22;28110;47.080;9.476;2022-12-29T09:03:19;9.60;80.10
42479;DHT22;28110;47.080;9.476;2022-12-29T09:05:50;9.50;80.00
42479;DHT22;28110;47.080;9.476;2022-12-29T09:08:16;9.50;79.80
42479;DHT22;28110;47.080;9.476;2022-12-29T09:10:42;9.50;80.50
42479;DHT22;28110;47.080;9.476;2022-12-29T09:13:07;9.50;80.20
42479;DHT22;28110;47.080;9.476;2022-12-29T09:15:33;9.60;80.20
42479;DHT22;28110;47.080;9.476;2022-12-29T09:17:58;9.60;81.00
42479;DHT22;28110;47.080;9.476;2022-12-29T09:20:24;9.60;80.20
42479;DHT22;28110;47.080;9.476;2022-12-29T09:22:50;9.60;81.60
42479;DHT22;28110;47.080;9.476;2022-12-29T09:25:15;9.60;80.40
42479;DHT22;28110;47.080;9.476;2022-12-29T09:27:41;9.70;80.40
42479;DHT22;28110;47.080;9.476;2022-12-29T09:30:09;9.70;80.00
42479;DHT22;28110;47.080;9.476;2022-12-29T09:32:35;9.80;80.10
42479;DHT22;28110;47.080;9.476;2022-12-29T09:35:01;9.80;80.20
42479;DHT22;28110;47.080;9.476;2022-12-29T09:37:27;9.90;80.50
42479;DHT22;28110;47.080;9.476;2022-12-29T09:39:52;9.90;81.00
42479;DHT22;28110;47.080;9.476;2022-12-29T09:45:27;9.90;80.40
42479;DHT22;28110;47.080;9.476;2022-12-29T09:47:54;9.90;80.30
42479;DHT22;28110;47.080;9.476;2022-12-29T09:50:35;9.90;79.80
42479;DHT22;28110;47.080;9.476;2022-12-29T09:53:20;9.90;80.20
42479;DHT22;28110;47.080;9.476;2022-12-29T09:55:51;9.80;80.50
42479;DHT22;28110;47.080;9.476;2022-12-29T09:58:25;9.80;80.00
42479;DHT22;28110;47.080;9.476;2022-12-29T10:01:03;9.80;79.10
42479;DHT22;28110;47.080;9.476;2022-12-29T10:03:49;9.80;78.90
42479;DHT22;28110;47.080;9.476;2022-12-29T10:24:55;10.00;79.90
42479;DHT22;28110;47.080;9.476;2022-12-29T10:27:22;10.00;78.90
42479;DHT22;28110;47.080;9.476;2022-12-29T10:29:53;10.00;79.60
42479;DHT22;28110;47.080;9.476;2022-12-29T10:32:36;10.10;78.80
42479;DHT22;28110;47.080;9.476;2022-12-29T10:35:14;10.20;78.20
42479;DHT22;28110;47.080;9.476;2022-12-29T10:38:01;10.30;78.60
42479;DHT22;28110;47.080;9.476;2022-12-29T10:40:38;10.30;77.10
42479;DHT22;28110;47.080;9.476;2022-12-29T10:46:02;10.40;77.50
42479;DHT22;28110;47.080;9.476;2022-12-29T10:48:32;10.50;77.70
42479;DHT22;28110;47.080;9.476;2022-12-29T10:51:02;10.50;77.90
42479;DHT22;28110;47.080;9.476;2022-12-29T10:53:48;10.50;77.10
42479;DHT22;28110;47.080;9.476;2022-12-29T10:58:50;10.60;77.50
42479;DHT22;28110;47.080;9.476;2022-12-29T11:01:17;10.60;78.10
42479;DHT22;28110;47.080;9.476;2022-12-29T11:04:03;10.50;79.00
42479;DHT22;28110;47.080;9.476;2022-12-29T11:06:29;10.50;78.40
42479;DHT22;28110;47.080;9.476;2022-12-29T11:09:14;10.60;77.00
42479;DHT22;28110;47.080;9.476;2022-12-29T11:11:41;10.60;77.90
42479;DHT22;28110;47.080;9.476;2022-12-29T11:14:13;10.70;77.40
42479;DHT22;28110;47.080;9.476;2022-12-29T11:16:40;10.70;77.10
42479;DHT22;28110;47.080;9.476;2022-12-29T11:19:23;10.80;76.70
42479;DHT22;28110;47.080;9.476;2022-12-29T11:21:49;10.80;76.90
42479;DHT22;28110;47.080;9.476;2022-12-29T11:24:26;10.90;76.00
42479;DHT22;28110;47.080;9.476;2022-12-29T11:26:54;11.00;76.60
42479;DHT22;28110;47.080;9.476;2022-12-29T11:29:26;11.00;76.30
42479;DHT22;28110;47.080;9.476;2022-12-29T11:31:53;11.10;75.60
42479;DHT22;28110;47.080;9.476;2022-12-29T11:34:22;11.00;75.70
42479;DHT22;28110;47.080;9.476;2022-12-29T11:36:49;11.10;74.60
42479;DHT22;28110;47.080;9.476;2022-12-29T11:39:58;11.30;74.20
42479;DHT22;28110;47.080;9.476;2022-12-29T11:45:04;11.40;75.20
42479;DHT22;28110;47.080;9.476;2022-12-29T11:47:31;11.60;74.10
42479;DHT22;28110;47.080;9.476;2022-12-29T11:50:02;11.60;74.40
42479;DHT22;28110;47.080;9.476;2022-12-29T11:52:32;11.60;75.10
42479;DHT22;28110;47.080;9.476;2022-12-29T11:55:02;11.70;74.30
42479;DHT22;28110;47.080;9.476;2022-12-29T11:57:32;11.70;75.40
42479;DHT22;28110;47.080;9.476;2022-12-29T12:00:00;11.70;76.40
42479;DHT22;28110;47.080;9.476;2022-12-29T12:02:32;11.80;73.60
42479;DHT22;28110;47.080;9.476;2022-12-29T12:05:19;11.70;76.10
42479;DHT22;28110;47.080;9.476;2022-12-29T12:08:08;11.70;74.60
42479;DHT22;28110;47.080;9.476;2022-12-29T12:10:42;11.70;73.90
42479;DHT22;28110;47.080;9.476;2022-12-29T12:13:39;11.70;72.70
42479;DHT22;28110;47.080;9.476;2022-12-29T12:16:09;11.80;73.50
42479;DHT22;28110;47.080;9.476;2022-12-29T12:18:48;11.70;73.30
42479;DHT22;28110;47.080;9.476;2022-12-29T12:26:32;11.60;73.50
42479;DHT22;28110;47.080;9.476;2022-12-29T12:31:57;11.60;73.40
42479;DHT22;28110;47.080;9.476;2022-12-29T12:34:30;11.70;72.00
42479;DHT22;28110;47.080;9.476;2022-12-29T12:37:10;11.80;72.00
42479;DHT22;28110;47.080;9.476;2022-12-29T12:40:00;11.80;72.80
42479;DHT22;28110;47.080;9.476;2022-12-29T12:42:52;11.80;72.60
42479;DHT22;28110;47.080;9.476;2022-12-29T12:45:38;11.80;72.50
42479;DHT22;28110;47.080;9.476;2022-12-29T12:56:59;12.00;72.90
42479;DHT22;28110;47.080;9.476;2022-12-29T13:16:28;12.20;69.40
42479;DHT22;28110;47.080;9.476;2022-12-29T13:19:23;12.20;70.00
42479;DHT22;28110;47.080;9.476;2022-12-29T13:27:16;12.20;69.30
42479;DHT22;28110;47.080;9.476;2022-12-29T13:29:54;12.20;70.80
42479;DHT22;28110;47.080;9.476;2022-12-29T13:35:20;12.20;70.50
42479;DHT22;28110;47.080;9.476;2022-12-29T13:37:55;12.20;70.50
42479;DHT22;28110;47.080;9.476;2022-12-29T13:40:25;12.20;70.40
42479;DHT22;28110;47.080;9.476;2022-12-29T13:42:52;12.20;70.00
42479;DHT22;28110;47.080;9.476;2022-12-29T13:45:24;12.20;70.50
42479;DHT22;28110;47.080;9.476;2022-12-29T13:47:56;12.20;71.10
42479;DHT22;28110;47.080;9.476;2022-12-29T13:50:25;12.10;70.80
42479;DHT22;28110;47.080;9.476;2022-12-29T13:53:20;12.10;70.10
42479;DHT22;28110;47.080;9.476;2022-12-29T14:01:17;12.30;69.00
42479;DHT22;28110;47.080;9.476;2022-12-29T14:03:52;12.30;70.10
42479;DHT22;28110;47.080;9.476;2022-12-29T14:06:31;12.20;69.00
42479;DHT22;28110;47.080;9.476;2022-12-29T14:08:59;12.30;69.00
42479;DHT22;28110;47.080;9.476;2022-12-29T14:11:36;12.20;69.00
42479;DHT22;28110;47.080;9.476;2022-12-29T14:14:23;12.20;69.90
42479;DHT22;28110;47.080;9.476;2022-12-29T14:16:51;12.20;68.70
42479;DHT22;28110;47.080;9.476;2022-12-29T14:19:26;12.30;67.60
42479;DHT22;28110;47.080;9.476;2022-12-29T14:22:01;12.30;68.60
42479;DHT22;28110;47.080;9.476;2022-12-29T14:34:53;12.30;68.00
42479;DHT22;28110;47.080;9.476;2022-12-29T14:37:27;12.30;68.80
42479;DHT22;28110;47.080;9.476;2022-12-29T14:40:06;12.20;68.60
42479;DHT22;28110;47.080;9.476;2022-12-29T14:42:39;12.20;68.00
42479;DHT22;28110;47.080;9.476;2022-12-29T14:47:40;12.20;68.70
42479;DHT22;28110;47.080;9.476;2022-12-29T14:53:06;12.20;68.70
42479;DHT22;28110;47.080;9.476;2022-12-29T14:55:41;12.20;68.50
42479;DHT22;28110;47.080;9.476;2022-12-29T14:58:20;12.10;69.30
42479;DHT22;28110;47.080;9.476;2022-12-29T15:00:46;12.10;69.70
42479;DHT22;28110;47.080;9.476;2022-12-29T15:03:18;12.10;69.10
42479;DHT22;28110;47.080;9.476;2022-12-29T15:06:17;12.10;68.00
42479;DHT22;28110;47.080;9.476;2022-12-29T15:09:27;12.20;68.50
42479;DHT22;28110;47.080;9.476;2022-12-29T15:11:59;12.20;68.50
42479;DHT22;28110;47.080;9.476;2022-12-29T15:14:37;12.10;68.00
42479;DHT22;28110;47.080;9.476;2022-12-29T15:19:50;12.10;68.10
42479;DHT22;28110;47.080;9.476;2022-12-29T15:22:16;12.10;68.30
42479;DHT22;28110;47.080;9.476;2022-12-29T15:24:43;12.10;68.90
42479;DHT22;28110;47.080;9.476;2022-12-29T15:27:18;12.10;68.80
42479;DHT22;28110;47.080;9.476;2022-12-29T15:29:46;12.10;68.50
42479;DHT22;28110;47.080;9.476;2022-12-29T15:32:18;12.20;69.20
42479;DHT22;28110;47.080;9.476;2022-12-29T15:34:46;12.10;68.90
42479;DHT22;28110;47.080;9.476;2022-12-29T15:37:24;12.10;68.20
42479;DHT22;28110;47.080;9.476;2022-12-29T15:39:51;12.00;68.90
42479;DHT22;28110;47.080;9.476;2022-12-29T15:44:48;11.90;69.30
42479;DHT22;28110;47.080;9.476;2022-12-29T15:47:25;11.90;69.70
42479;DHT22;28110;47.080;9.476;2022-12-29T15:49:59;11.90;68.60
42479;DHT22;28110;47.080;9.476;2022-12-29T15:52:31;11.90;69.60
42479;DHT22;28110;47.080;9.476;2022-12-29T15:54:58;11.90;69.90
42479;DHT22;28110;47.080;9.476;2022-12-29T15:57:27;11.90;69.50
42479;DHT22;28110;47.080;9.476;2022-12-29T15:59:53;11.90;69.90
42479;DHT22;28110;47.080;9.476;2022-12-29T16:02:21;11.80;70.60
42479;DHT22;28110;47.080;9.476;2022-12-29T16:04:48;11.80;69.30
42479;DHT22;28110;47.080;9.476;2022-12-29T16:07:40;11.80;70.30
42479;DHT22;28110;47.080;9.476;2022-12-29T16:12:51;11.90;70.00
42479;DHT22;28110;47.080;9.476;2022-12-29T16:15:18;11.90;70.10
42479;DHT22;28110;47.080;9.476;2022-12-29T16:17:49;11.90;70.70
42479;DHT22;28110;47.080;9.476;2022-12-29T16:20:22;11.80;69.10
42479;DHT22;28110;47.080;9.476;2022-12-29T16:22:53;11.90;69.40
42479;DHT22;28110;47.080;9.476;2022-12-29T16:25:29;11.90;70.30
42479;DHT22;28110;47.080;9.476;2022-12-29T16:27:57;11.90;69.90
42479;DHT22;28110;47.080;9.476;2022-12-29T16:30:28;11.90;69.40
42479;DHT22;28110;47.080;9.476;2022-12-29T16:32:57;11.90;70.30
42479;DHT22;28110;47.080;9.476;2022-12-29T16:35:25;11.80;70.10
42479;DHT22;28110;47.080;9.476;2022-12-29T16:38:20;11.80;69.60
42479;DHT22;28110;47.080;9.476;2022-12-29T16:43:24;11.80;70.40
42479;DHT22;28110;47.080;9.476;2022-12-29T16:48:20;11.70;70.70
42479;DHT22;28110;47.080;9.476;2022-12-29T16:50:47;11.70;70.90
42479;DHT22;28110;47.080;9.476;2022-12-29T16:53:28;11.60;71.80
42479;DHT22;28110;47.080;9.476;2022-12-29T16:55:55;11.60;72.10
42479;DHT22;28110;47.080;9.476;2022-12-29T16:58:24;11.60;71.80
42479;DHT22;28110;47.080;9.476;2022-12-29T17:00:58;11.60;72.00
42479;DHT22;28110;47.080;9.476;2022-12-29T17:03:41;11.60;71.70
42479;DHT22;28110;47.080;9.476;2022-12-29T17:06:18;11.60;71.20
42479;DHT22;28110;47.080;9.476;2022-12-29T17:08:44;11.50;71.80
42479;DHT22;28110;47.080;9.476;2022-12-29T17:11:37;11.50;71.90
42479;DHT22;28110;47.080;9.476;2022-12-29T17:14:39;11.50;72.20
42479;DHT22;28110;47.080;9.476;2022-12-29T17:17:15;11.50;72.20
42479;DHT22;28110;47.080;9.476;2022-12-29T17:19:47;11.40;72.50
42479;DHT22;28110;47.080;9.476;2022-12-29T17:22:19;11.50;71.90
42479;DHT22;28110;47.080;9.476;2022-12-29T17:24:45;11.40;72.00
42479;DHT22;28110;47.080;9.476;2022-12-29T17:27:22;11.40;72.40
42479;DHT22;28110;47.080;9.476;2022-12-29T17:29:49;11.40;72.40
42479;DHT22;28110;47.080;9.476;2022-12-29T17:32:16;11.30;72.80
42479;DHT22;28110;47.080;9.476;2022-12-29T17:34:41;11.30;72.40
42479;DHT22;28110;47.080;9.476;2022-12-29T17:39:49;11.30;72.90
42479;DHT22;28110;47.080;9.476;2022-12-29T17:42:15;11.30;72.70
42479;DHT22;28110;47.080;9.476;2022-12-29T17:44:41;11.30;72.70
42479;DHT22;28110;47.080;9.476;2022-12-29T17:47:10;11.30;72.70
42479;DHT22;28110;47.080;9.476;2022-12-29T17:49:35;11.30;73.30
42479;DHT22;28110;47.080;9.476;2022-12-29T17:52:01;11.20;72.80
42479;DHT22;28110;47.080;9.476;2022-12-29T17:54:27;11.20;72.90
42479;DHT22;28110;47.080;9.476;2022-12-29T17:56:52;11.20;73.40
42479;DHT22;28110;47.080;9.476;2022-12-29T17:59:18;11.10;73.40
42479;DHT22;28110;47.080;9.476;2022-12-29T18:01:45;11.10;73.40
42479;DHT22;28110;47.080;9.476;2022-12-29T18:04:19;11.10;73.70
42479;DHT22;28110;47.080;9.476;2022-12-29T18:06:45;11.10;74.10
42479;DHT22;28110;47.080;9.476;2022-12-29T18:09:12;11.10;74.00
42479;DHT22;28110;47.080;9.476;2022-12-29T18:11:39;11.10;73.10
42479;DHT22;28110;47.080;9.476;2022-12-29T18:14:13;11.10;73.60
42479;DHT22;28110;47.080;9.476;2022-12-29T18:16:39;11.10;74.30
42479;DHT22;28110;47.080;9.476;2022-12-29T18:19:05;11.10;73.80
42479;DHT22;28110;47.080;9.476;2022-12-29T18:21:30;11.10;73.50
42479;DHT22;28110;47.080;9.476;2022-12-29T18:23:56;11.10;74.20